Woodworth, North Dakota
Current Conditions -  °F | °C
As of 6:35 PM on Wednesday 26 Nov 2014 (Local Time) from K46D Reporting Station
Clear Clear  
Wind Chill: -6°   Ceiling: Unl
Heat Index: -6°   Visibility: 10mi
Dew Point: -11°   Wind: 3mph
Humidity: 77%   Direction: 310°NW
Pressure: 30.47"   Gusts: NA
Location:  47.14°N, 99.3°W
Report Text: K46D 270035Z AUTO 31003KT 10SM CLR M21/M24 A3047 RMK AO2
Loading
Personal Weather Stations






























Interactive Weather Map New forecast layout! Learn more

10-Day Weather Forecast

Advertisements
Track Severe Weather on mobile